sensor_id;sensor_type;location;lat;lon;timestamp;temperature;humidity
5881;DHT22;2966;52.598;10.928;2022-09-06T00:02:24;17.40;99.90
5881;DHT22;2966;52.598;10.928;2022-09-06T00:04:51;17.40;99.90
5881;DHT22;2966;52.598;10.928;2022-09-06T00:07:19;17.30;99.90
5881;DHT22;2966;52.598;10.928;2022-09-06T00:09:46;17.30;99.90
5881;DHT22;2966;52.598;10.928;2022-09-06T00:12:13;17.20;99.90
5881;DHT22;2966;52.598;10.928;2022-09-06T00:14:40;17.20;99.90
5881;DHT22;2966;52.598;10.928;2022-09-06T00:17:06;17.20;99.90
5881;DHT22;2966;52.598;10.928;2022-09-06T00:19:33;17.20;99.90
5881;DHT22;2966;52.598;10.928;2022-09-06T00:22:00;17.20;99.90
5881;DHT22;2966;52.598;10.928;2022-09-06T00:24:28;17.10;99.90
5881;DHT22;2966;52.598;10.928;2022-09-06T00:26:54;17.10;99.90
5881;DHT22;2966;52.598;10.928;2022-09-06T00:29:21;17.10;99.90
5881;DHT22;2966;52.598;10.928;2022-09-06T00:31:48;17.10;99.90
5881;DHT22;2966;52.598;10.928;2022-09-06T00:34:14;17.10;99.90
5881;DHT22;2966;52.598;10.928;2022-09-06T00:36:41;17.10;99.90
5881;DHT22;2966;52.598;10.928;2022-09-06T00:39:08;17.10;99.90
5881;DHT22;2966;52.598;10.928;2022-09-06T00:41:36;17.10;99.90
5881;DHT22;2966;52.598;10.928;2022-09-06T00:44:02;17.10;99.90
5881;DHT22;2966;52.598;10.928;2022-09-06T00:46:30;17.10;99.90
5881;DHT22;2966;52.598;10.928;2022-09-06T00:49:00;17.10;99.90
5881;DHT22;2966;52.598;10.928;2022-09-06T00:51:30;17.10;99.90
5881;DHT22;2966;52.598;10.928;2022-09-06T00:54:01;17.00;99.90
5881;DHT22;2966;52.598;10.928;2022-09-06T00:56:29;17.00;99.90
5881;DHT22;2966;52.598;10.928;2022-09-06T00:58:59;17.00;99.90
5881;DHT22;2966;52.598;10.928;2022-09-06T01:01:26;16.90;99.90
5881;DHT22;2966;52.598;10.928;2022-09-06T01:03:52;16.90;99.90
5881;DHT22;2966;52.598;10.928;2022-09-06T01:06:26;16.90;99.90
5881;DHT22;2966;52.598;10.928;2022-09-06T01:09:01;16.80;99.90
5881;DHT22;2966;52.598;10.928;2022-09-06T01:11:44;16.80;99.90
5881;DHT22;2966;52.598;10.928;2022-09-06T01:14:23;16.80;99.90
5881;DHT22;2966;52.598;10.928;2022-09-06T01:16:58;16.70;99.90
5881;DHT22;2966;52.598;10.928;2022-09-06T01:20:09;16.70;99.90
5881;DHT22;2966;52.598;10.928;2022-09-06T01:23:11;16.70;99.90
5881;DHT22;2966;52.598;10.928;2022-09-06T01:25:51;16.70;99.90
5881;DHT22;2966;52.598;10.928;2022-09-06T01:28:29;16.60;99.90
5881;DHT22;2966;52.598;10.928;2022-09-06T01:31:02;16.60;99.90
5881;DHT22;2966;52.598;10.928;2022-09-06T01:33:33;16.60;99.90
5881;DHT22;2966;52.598;10.928;2022-09-06T01:36:03;16.50;99.90
5881;DHT22;2966;52.598;10.928;2022-09-06T01:38:32;16.50;99.90
5881;DHT22;2966;52.598;10.928;2022-09-06T01:40:59;16.40;99.90
5881;DHT22;2966;52.598;10.928;2022-09-06T01:43:30;16.40;99.90
5881;DHT22;2966;52.598;10.928;2022-09-06T01:46:01;16.40;99.90
5881;DHT22;2966;52.598;10.928;2022-09-06T01:48:39;16.30;99.90
5881;DHT22;2966;52.598;10.928;2022-09-06T01:51:18;16.30;99.90
5881;DHT22;2966;52.598;10.928;2022-09-06T01:54:03;16.30;99.90
5881;DHT22;2966;52.598;10.928;2022-09-06T01:56:38;16.30;99.90
5881;DHT22;2966;52.598;10.928;2022-09-06T01:59:22;16.30;99.90
5881;DHT22;2966;52.598;10.928;2022-09-06T02:01:57;16.30;99.90
5881;DHT22;2966;52.598;10.928;2022-09-06T02:04:27;16.30;99.90
5881;DHT22;2966;52.598;10.928;2022-09-06T02:06:59;16.30;99.90
5881;DHT22;2966;52.598;10.928;2022-09-06T02:09:29;16.20;99.90
5881;DHT22;2966;52.598;10.928;2022-09-06T02:11:59;16.20;99.90
5881;DHT22;2966;52.598;10.928;2022-09-06T02:14:31;16.20;99.90
5881;DHT22;2966;52.598;10.928;2022-09-06T02:17:00;16.20;99.90
5881;DHT22;2966;52.598;10.928;2022-09-06T02:19:33;16.20;99.90
5881;DHT22;2966;52.598;10.928;2022-09-06T02:22:04;16.20;99.90
5881;DHT22;2966;52.598;10.928;2022-09-06T02:24:35;16.10;99.90
5881;DHT22;2966;52.598;10.928;2022-09-06T02:27:04;16.10;99.90
5881;DHT22;2966;52.598;10.928;2022-09-06T02:29:33;16.10;99.90
5881;DHT22;2966;52.598;10.928;2022-09-06T02:32:03;16.00;99.90
5881;DHT22;2966;52.598;10.928;2022-09-06T02:34:31;16.00;99.90
5881;DHT22;2966;52.598;10.928;2022-09-06T02:36:59;16.00;99.90
5881;DHT22;2966;52.598;10.928;2022-09-06T02:39:26;15.90;99.90
5881;DHT22;2966;52.598;10.928;2022-09-06T02:41:52;15.90;99.90
5881;DHT22;2966;52.598;10.928;2022-09-06T02:44:20;15.90;99.90
5881;DHT22;2966;52.598;10.928;2022-09-06T02:46:48;15.80;99.90
5881;DHT22;2966;52.598;10.928;2022-09-06T02:49:14;15.90;99.90
5881;DHT22;2966;52.598;10.928;2022-09-06T02:51:41;15.90;99.90
5881;DHT22;2966;52.598;10.928;2022-09-06T02:54:08;15.90;99.90
5881;DHT22;2966;52.598;10.928;2022-09-06T02:56:35;15.80;99.90
5881;DHT22;2966;52.598;10.928;2022-09-06T02:59:02;15.80;99.90
5881;DHT22;2966;52.598;10.928;2022-09-06T03:01:33;15.80;99.90
5881;DHT22;2966;52.598;10.928;2022-09-06T03:04:01;15.80;99.90
5881;DHT22;2966;52.598;10.928;2022-09-06T03:06:28;15.80;99.90
5881;DHT22;2966;52.598;10.928;2022-09-06T03:08:55;15.80;99.90
5881;DHT22;2966;52.598;10.928;2022-09-06T03:11:25;15.80;99.90
5881;DHT22;2966;52.598;10.928;2022-09-06T03:13:52;15.80;99.90
5881;DHT22;2966;52.598;10.928;2022-09-06T03:16:19;15.70;99.90
5881;DHT22;2966;52.598;10.928;2022-09-06T03:18:46;15.70;99.90
5881;DHT22;2966;52.598;10.928;2022-09-06T03:21:14;15.60;99.90
5881;DHT22;2966;52.598;10.928;2022-09-06T03:23:41;15.70;99.90
5881;DHT22;2966;52.598;10.928;2022-09-06T03:26:08;15.70;99.90
5881;DHT22;2966;52.598;10.928;2022-09-06T03:28:35;15.60;99.90
5881;DHT22;2966;52.598;10.928;2022-09-06T03:31:01;15.60;99.90
5881;DHT22;2966;52.598;10.928;2022-09-06T03:33:28;15.60;99.90
5881;DHT22;2966;52.598;10.928;2022-09-06T03:35:57;15.60;99.90
5881;DHT22;2966;52.598;10.928;2022-09-06T03:38:26;15.60;99.90
5881;DHT22;2966;52.598;10.928;2022-09-06T03:40:54;15.50;99.90
5881;DHT22;2966;52.598;10.928;2022-09-06T03:43:25;15.50;99.90
5881;DHT22;2966;52.598;10.928;2022-09-06T03:45:53;15.40;99.90
5881;DHT22;2966;52.598;10.928;2022-09-06T03:48:26;15.40;99.90
5881;DHT22;2966;52.598;10.928;2022-09-06T03:50:55;15.40;99.90
5881;DHT22;2966;52.598;10.928;2022-09-06T03:53:23;15.40;99.90
5881;DHT22;2966;52.598;10.928;2022-09-06T03:55:53;15.30;99.90
5881;DHT22;2966;52.598;10.928;2022-09-06T03:58:23;15.30;99.90
5881;DHT22;2966;52.598;10.928;2022-09-06T04:00:59;15.30;99.90
5881;DHT22;2966;52.598;10.928;2022-09-06T04:03:26;15.30;99.90
5881;DHT22;2966;52.598;10.928;2022-09-06T04:05:52;15.30;99.90
5881;DHT22;2966;52.598;10.928;2022-09-06T04:08:19;15.30;99.90
5881;DHT22;2966;52.598;10.928;2022-09-06T04:10:48;15.30;99.90
5881;DHT22;2966;52.598;10.928;2022-09-06T04:13:16;15.30;99.90
5881;DHT22;2966;52.598;10.928;2022-09-06T04:15:44;15.30;99.90
5881;DHT22;2966;52.598;10.928;2022-09-06T04:18:11;15.30;99.90
5881;DHT22;2966;52.598;10.928;2022-09-06T04:20:38;15.30;99.90
5881;DHT22;2966;52.598;10.928;2022-09-06T04:23:05;15.30;99.90
5881;DHT22;2966;52.598;10.928;2022-09-06T04:25:32;15.30;99.90
5881;DHT22;2966;52.598;10.928;2022-09-06T04:28:01;15.30;99.90
5881;DHT22;2966;52.598;10.928;2022-09-06T04:30:29;15.40;99.90
5881;DHT22;2966;52.598;10.928;2022-09-06T04:32:56;15.40;99.90
5881;DHT22;2966;52.598;10.928;2022-09-06T04:35:23;15.40;99.90
5881;DHT22;2966;52.598;10.928;2022-09-06T04:37:50;15.40;99.90
5881;DHT22;2966;52.598;10.928;2022-09-06T04:40:16;15.30;99.90
5881;DHT22;2966;52.598;10.928;2022-09-06T04:42:43;15.40;99.90
5881;DHT22;2966;52.598;10.928;2022-09-06T04:45:10;15.40;99.90
5881;DHT22;2966;52.598;10.928;2022-09-06T04:47:39;15.40;99.90
5881;DHT22;2966;52.598;10.928;2022-09-06T04:50:09;15.40;99.90
5881;DHT22;2966;52.598;10.928;2022-09-06T04:52:35;15.30;99.90
5881;DHT22;2966;52.598;10.928;2022-09-06T04:55:03;15.30;99.90
5881;DHT22;2966;52.598;10.928;2022-09-06T04:57:31;15.40;99.90
5881;DHT22;2966;52.598;10.928;2022-09-06T04:59:58;15.40;99.90
5881;DHT22;2966;52.598;10.928;2022-09-06T05:02:25;15.30;99.90
5881;DHT22;2966;52.598;10.928;2022-09-06T05:04:53;15.30;99.90
5881;DHT22;2966;52.598;10.928;2022-09-06T05:07:19;15.30;99.90
5881;DHT22;2966;52.598;10.928;2022-09-06T05:09:46;15.30;99.90
5881;DHT22;2966;52.598;10.928;2022-09-06T05:12:13;15.40;99.90
5881;DHT22;2966;52.598;10.928;2022-09-06T05:14:39;15.40;99.90
5881;DHT22;2966;52.598;10.928;2022-09-06T05:17:06;15.40;99.90
5881;DHT22;2966;52.598;10.928;2022-09-06T05:19:33;15.40;99.90
5881;DHT22;2966;52.598;10.928;2022-09-06T05:22:01;15.40;99.90
5881;DHT22;2966;52.598;10.928;2022-09-06T05:24:27;15.30;99.90
5881;DHT22;2966;52.598;10.928;2022-09-06T05:26:54;15.30;99.90
5881;DHT22;2966;52.598;10.928;2022-09-06T05:29:21;15.30;99.90
5881;DHT22;2966;52.598;10.928;2022-09-06T05:31:47;15.30;99.90
5881;DHT22;2966;52.598;10.928;2022-09-06T05:34:14;15.30;99.90
5881;DHT22;2966;52.598;10.928;2022-09-06T05:36:41;15.30;99.90
5881;DHT22;2966;52.598;10.928;2022-09-06T05:39:11;15.30;99.90
5881;DHT22;2966;52.598;10.928;2022-09-06T05:41:37;15.30;99.90
5881;DHT22;2966;52.598;10.928;2022-09-06T05:44:04;15.30;99.90
5881;DHT22;2966;52.598;10.928;2022-09-06T05:46:31;15.40;99.90
5881;DHT22;2966;52.598;10.928;2022-09-06T05:48:58;15.30;99.90
5881;DHT22;2966;52.598;10.928;2022-09-06T05:51:29;15.30;99.90
5881;DHT22;2966;52.598;10.928;2022-09-06T05:53:57;15.40;99.90
5881;DHT22;2966;52.598;10.928;2022-09-06T05:56:25;15.40;99.90
5881;DHT22;2966;52.598;10.928;2022-09-06T05:58:51;15.30;99.90
5881;DHT22;2966;52.598;10.928;2022-09-06T06:01:20;15.40;99.90
5881;DHT22;2966;52.598;10.928;2022-09-06T06:03:51;15.40;99.90
5881;DHT22;2966;52.598;10.928;2022-09-06T06:06:20;15.40;99.90
5881;DHT22;2966;52.598;10.928;2022-09-06T06:08:47;15.40;99.90
5881;DHT22;2966;52.598;10.928;2022-09-06T06:11:15;15.40;99.90
5881;DHT22;2966;52.598;10.928;2022-09-06T06:13:43;15.40;99.90
5881;DHT22;2966;52.598;10.928;2022-09-06T06:16:13;15.40;99.90
5881;DHT22;2966;52.598;10.928;2022-09-06T06:18:41;15.40;99.90
5881;DHT22;2966;52.598;10.928;2022-09-06T06:21:11;15.40;99.90
5881;DHT22;2966;52.598;10.928;2022-09-06T06:23:39;15.30;99.90
5881;DHT22;2966;52.598;10.928;2022-09-06T06:26:06;15.30;99.90
5881;DHT22;2966;52.598;10.928;2022-09-06T06:28:33;15.40;99.90
5881;DHT22;2966;52.598;10.928;2022-09-06T06:31:02;15.40;99.90
5881;DHT22;2966;52.598;10.928;2022-09-06T06:33:29;15.30;99.90
5881;DHT22;2966;52.598;10.928;2022-09-06T06:36:01;15.40;99.90
5881;DHT22;2966;52.598;10.928;2022-09-06T06:38:31;15.40;99.90
5881;DHT22;2966;52.598;10.928;2022-09-06T06:40:59;15.30;99.90
5881;DHT22;2966;52.598;10.928;2022-09-06T06:43:26;15.40;99.90
5881;DHT22;2966;52.598;10.928;2022-09-06T06:45:53;15.40;99.90
5881;DHT22;2966;52.598;10.928;2022-09-06T06:48:21;15.40;99.90
5881;DHT22;2966;52.598;10.928;2022-09-06T06:50:48;15.40;99.90
5881;DHT22;2966;52.598;10.928;2022-09-06T06:53:14;15.50;99.90
5881;DHT22;2966;52.598;10.928;2022-09-06T06:55:44;15.50;99.90
5881;DHT22;2966;52.598;10.928;2022-09-06T06:58:12;15.50;99.90
5881;DHT22;2966;52.598;10.928;2022-09-06T07:00:39;15.60;99.90
5881;DHT22;2966;52.598;10.928;2022-09-06T07:03:06;15.60;99.90
5881;DHT22;2966;52.598;10.928;2022-09-06T07:05:34;15.60;99.90
5881;DHT22;2966;52.598;10.928;2022-09-06T07:08:01;15.70;99.90
5881;DHT22;2966;52.598;10.928;2022-09-06T07:10:28;15.70;99.90
5881;DHT22;2966;52.598;10.928;2022-09-06T07:12:55;15.70;99.90
5881;DHT22;2966;52.598;10.928;2022-09-06T07:15:21;15.70;99.90
5881;DHT22;2966;52.598;10.928;2022-09-06T07:17:48;15.80;99.90
5881;DHT22;2966;52.598;10.928;2022-09-06T07:20:15;15.80;99.90
5881;DHT22;2966;52.598;10.928;2022-09-06T07:22:43;15.80;99.90
5881;DHT22;2966;52.598;10.928;2022-09-06T07:25:10;15.90;99.90
5881;DHT22;2966;52.598;10.928;2022-09-06T07:27:37;15.90;99.90
5881;DHT22;2966;52.598;10.928;2022-09-06T07:30:05;16.00;99.90
5881;DHT22;2966;52.598;10.928;2022-09-06T07:32:33;16.00;99.90
5881;DHT22;2966;52.598;10.928;2022-09-06T07:35:00;16.00;99.90
5881;DHT22;2966;52.598;10.928;2022-09-06T07:37:26;16.10;99.90
5881;DHT22;2966;52.598;10.928;2022-09-06T07:39:54;16.10;99.90
5881;DHT22;2966;52.598;10.928;2022-09-06T07:42:21;16.20;99.90
5881;DHT22;2966;52.598;10.928;2022-09-06T07:44:48;16.30;99.90
5881;DHT22;2966;52.598;10.928;2022-09-06T07:47:14;16.30;99.90
5881;DHT22;2966;52.598;10.928;2022-09-06T07:49:42;16.40;99.90
5881;DHT22;2966;52.598;10.928;2022-09-06T07:52:08;16.40;99.90
5881;DHT22;2966;52.598;10.928;2022-09-06T07:54:38;16.50;99.90
5881;DHT22;2966;52.598;10.928;2022-09-06T07:57:06;16.60;99.90
5881;DHT22;2966;52.598;10.928;2022-09-06T07:59:33;16.70;99.90
5881;DHT22;2966;52.598;10.928;2022-09-06T08:01:59;16.60;99.90
5881;DHT22;2966;52.598;10.928;2022-09-06T08:04:26;16.70;99.90
5881;DHT22;2966;52.598;10.928;2022-09-06T08:06:53;16.80;99.90
5881;DHT22;2966;52.598;10.928;2022-09-06T08:09:21;16.90;99.90
5881;DHT22;2966;52.598;10.928;2022-09-06T08:11:49;16.90;99.90
5881;DHT22;2966;52.598;10.928;2022-09-06T08:14:18;16.90;99.90
5881;DHT22;2966;52.598;10.928;2022-09-06T08:16:45;17.00;99.90
5881;DHT22;2966;52.598;10.928;2022-09-06T08:19:11;17.10;99.90
5881;DHT22;2966;52.598;10.928;2022-09-06T08:21:40;17.20;99.90
5881;DHT22;2966;52.598;10.928;2022-09-06T08:24:08;17.30;99.90
5881;DHT22;2966;52.598;10.928;2022-09-06T08:26:36;17.30;99.90
5881;DHT22;2966;52.598;10.928;2022-09-06T08:29:05;17.30;99.90
5881;DHT22;2966;52.598;10.928;2022-09-06T08:31:36;17.40;99.90
5881;DHT22;2966;52.598;10.928;2022-09-06T08:34:03;17.40;99.90
5881;DHT22;2966;52.598;10.928;2022-09-06T08:36:30;17.40;99.90
5881;DHT22;2966;52.598;10.928;2022-09-06T08:38:57;17.40;99.90
5881;DHT22;2966;52.598;10.928;2022-09-06T08:41:25;17.40;99.90
5881;DHT22;2966;52.598;10.928;2022-09-06T08:43:54;17.40;99.90
5881;DHT22;2966;52.598;10.928;2022-09-06T08:46:23;17.40;99.90
5881;DHT22;2966;52.598;10.928;2022-09-06T08:48:53;17.40;99.90
5881;DHT22;2966;52.598;10.928;2022-09-06T08:54:38;17.60;99.90
5881;DHT22;2966;52.598;10.928;2022-09-06T08:57:12;17.60;99.90
5881;DHT22;2966;52.598;10.928;2022-09-06T08:59:40;17.70;99.90
5881;DHT22;2966;52.598;10.928;2022-09-06T09:02:13;17.90;99.90
5881;DHT22;2966;52.598;10.928;2022-09-06T09:04:44;18.00;99.90
5881;DHT22;2966;52.598;10.928;2022-09-06T09:07:35;18.00;99.90
5881;DHT22;2966;52.598;10.928;2022-09-06T09:10:06;17.90;99.90
5881;DHT22;2966;52.598;10.928;2022-09-06T09:12:40;18.00;99.90
5881;DHT22;2966;52.598;10.928;2022-09-06T09:15:09;18.00;99.90
5881;DHT22;2966;52.598;10.928;2022-09-06T09:17:37;18.10;99.90
5881;DHT22;2966;52.598;10.928;2022-09-06T09:20:06;18.10;99.90
5881;DHT22;2966;52.598;10.928;2022-09-06T09:22:37;18.20;99.90
5881;DHT22;2966;52.598;10.928;2022-09-06T09:25:07;18.30;99.90
5881;DHT22;2966;52.598;10.928;2022-09-06T09:27:35;18.30;99.90
5881;DHT22;2966;52.598;10.928;2022-09-06T09:30:05;18.30;99.90
5881;DHT22;2966;52.598;10.928;2022-09-06T09:32:33;18.40;99.90
5881;DHT22;2966;52.598;10.928;2022-09-06T09:35:24;18.60;99.90
5881;DHT22;2966;52.598;10.928;2022-09-06T09:37:58;18.80;99.90
5881;DHT22;2966;52.598;10.928;2022-09-06T09:40:34;18.80;99.90
5881;DHT22;2966;52.598;10.928;2022-09-06T09:43:19;19.00;99.90
5881;DHT22;2966;52.598;10.928;2022-09-06T09:46:07;19.20;99.90
5881;DHT22;2966;52.598;10.928;2022-09-06T09:48:34;19.30;99.90
5881;DHT22;2966;52.598;10.928;2022-09-06T09:51:18;19.20;99.90
5881;DHT22;2966;52.598;10.928;2022-09-06T09:53:50;19.20;99.90
5881;DHT22;2966;52.598;10.928;2022-09-06T09:56:31;18.80;99.90
5881;DHT22;2966;52.598;10.928;2022-09-06T09:58:59;18.90;99.90
5881;DHT22;2966;52.598;10.928;2022-09-06T10:01:29;18.80;99.90
5881;DHT22;2966;52.598;10.928;2022-09-06T10:04:03;18.80;99.90
5881;DHT22;2966;52.598;10.928;2022-09-06T10:06:33;18.70;99.90
5881;DHT22;2966;52.598;10.928;2022-09-06T10:09:13;18.80;99.90
5881;DHT22;2966;52.598;10.928;2022-09-06T10:11:49;18.90;99.90
5881;DHT22;2966;52.598;10.928;2022-09-06T10:14:24;19.10;99.90
5881;DHT22;2966;52.598;10.928;2022-09-06T10:16:51;19.50;99.90
5881;DHT22;2966;52.598;10.928;2022-09-06T10:19:23;19.90;99.90
5881;DHT22;2966;52.598;10.928;2022-09-06T10:22:02;20.10;99.90
5881;DHT22;2966;52.598;10.928;2022-09-06T10:24:40;20.20;99.90
5881;DHT22;2966;52.598;10.928;2022-09-06T10:27:10;20.10;99.90
5881;DHT22;2966;52.598;10.928;2022-09-06T10:29:44;20.20;99.90
5881;DHT22;2966;52.598;10.928;2022-09-06T10:32:26;19.80;99.90
5881;DHT22;2966;52.598;10.928;2022-09-06T10:35:02;19.70;99.90
5881;DHT22;2966;52.598;10.928;2022-09-06T10:37:57;19.70;99.90
5881;DHT22;2966;52.598;10.928;2022-09-06T10:40:31;19.50;99.90
5881;DHT22;2966;52.598;10.928;2022-09-06T10:43:02;19.60;99.90
5881;DHT22;2966;52.598;10.928;2022-09-06T10:45:42;19.80;99.90
5881;DHT22;2966;52.598;10.928;2022-09-06T10:48:15;19.90;99.90
5881;DHT22;2966;52.598;10.928;2022-09-06T10:50:49;20.00;99.90
5881;DHT22;2966;52.598;10.928;2022-09-06T10:53:29;20.10;99.90
5881;DHT22;2966;52.598;10.928;2022-09-06T10:56:02;20.20;99.90
5881;DHT22;2966;52.598;10.928;2022-09-06T10:58:37;20.00;99.90
5881;DHT22;2966;52.598;10.928;2022-09-06T11:01:06;20.00;99.90
5881;DHT22;2966;52.598;10.928;2022-09-06T11:03:40;19.90;99.90
5881;DHT22;2966;52.598;10.928;2022-09-06T11:06:09;19.90;99.90
5881;DHT22;2966;52.598;10.928;2022-09-06T11:08:42;19.70;99.90
5881;DHT22;2966;52.598;10.928;2022-09-06T11:11:16;19.90;99.90
5881;DHT22;2966;52.598;10.928;2022-09-06T11:13:47;19.90;99.90
5881;DHT22;2966;52.598;10.928;2022-09-06T11:16:18;20.10;99.90
5881;DHT22;2966;52.598;10.928;2022-09-06T11:18:50;20.10;99.90
5881;DHT22;2966;52.598;10.928;2022-09-06T11:21:45;20.10;99.90
5881;DHT22;2966;52.598;10.928;2022-09-06T11:24:21;20.10;99.90
5881;DHT22;2966;52.598;10.928;2022-09-06T11:27:00;20.10;99.90
5881;DHT22;2966;52.598;10.928;2022-09-06T11:29:31;20.20;99.90
5881;DHT22;2966;52.598;10.928;2022-09-06T11:32:03;20.20;99.90
5881;DHT22;2966;52.598;10.928;2022-09-06T11:34:52;20.20;99.90
5881;DHT22;2966;52.598;10.928;2022-09-06T11:37:25;20.20;99.90
5881;DHT22;2966;52.598;10.928;2022-09-06T11:40:05;20.20;99.90
5881;DHT22;2966;52.598;10.928;2022-09-06T11:45:39;20.30;99.90
5881;DHT22;2966;52.598;10.928;2022-09-06T11:48:28;20.40;99.90
5881;DHT22;2966;52.598;10.928;2022-09-06T11:51:04;20.50;99.90
5881;DHT22;2966;52.598;10.928;2022-09-06T11:53:33;20.40;99.90
5881;DHT22;2966;52.598;10.928;2022-09-06T11:56:24;20.60;99.90
5881;DHT22;2966;52.598;10.928;2022-09-06T11:58:56;20.70;99.90
5881;DHT22;2966;52.598;10.928;2022-09-06T12:01:38;20.90;99.90
5881;DHT22;2966;52.598;10.928;2022-09-06T12:04:07;20.90;99.90
5881;DHT22;2966;52.598;10.928;2022-09-06T12:06:36;20.90;99.90
5881;DHT22;2966;52.598;10.928;2022-09-06T12:09:25;21.00;99.90
5881;DHT22;2966;52.598;10.928;2022-09-06T12:11:55;21.00;99.90
5881;DHT22;2966;52.598;10.928;2022-09-06T12:14:33;21.00;99.90
5881;DHT22;2966;52.598;10.928;2022-09-06T12:17:19;21.00;99.90
5881;DHT22;2966;52.598;10.928;2022-09-06T12:19:47;21.00;99.90
5881;DHT22;2966;52.598;10.928;2022-09-06T12:25:54;21.00;99.90
5881;DHT22;2966;52.598;10.928;2022-09-06T12:28:46;21.00;99.90
5881;DHT22;2966;52.598;10.928;2022-09-06T12:31:33;21.10;99.90
5881;DHT22;2966;52.598;10.928;2022-09-06T12:34:08;21.10;99.90
5881;DHT22;2966;52.598;10.928;2022-09-06T12:36:35;21.10;99.90
5881;DHT22;2966;52.598;10.928;2022-09-06T12:39:11;20.90;99.90
5881;DHT22;2966;52.598;10.928;2022-09-06T12:41:40;20.80;99.90
5881;DHT22;2966;52.598;10.928;2022-09-06T12:44:10;20.70;99.90
5881;DHT22;2966;52.598;10.928;2022-09-06T12:46:44;20.60;99.90
5881;DHT22;2966;52.598;10.928;2022-09-06T12:49:15;20.60;99.90
5881;DHT22;2966;52.598;10.928;2022-09-06T12:51:43;20.50;99.90
5881;DHT22;2966;52.598;10.928;2022-09-06T12:54:18;20.60;99.90
5881;DHT22;2966;52.598;10.928;2022-09-06T12:56:46;20.60;99.90
5881;DHT22;2966;52.598;10.928;2022-09-06T12:59:17;20.70;99.90
5881;DHT22;2966;52.598;10.928;2022-09-06T13:01:49;20.80;99.90
5881;DHT22;2966;52.598;10.928;2022-09-06T13:04:25;21.10;99.90
5881;DHT22;2966;52.598;10.928;2022-09-06T13:06:53;21.30;99.90
5881;DHT22;2966;52.598;10.928;2022-09-06T13:09:23;21.50;99.90
5881;DHT22;2966;52.598;10.928;2022-09-06T13:11:57;21.90;99.90
5881;DHT22;2966;52.598;10.928;2022-09-06T13:14:28;22.00;99.90
5881;DHT22;2966;52.598;10.928;2022-09-06T13:16:56;22.10;99.90
5881;DHT22;2966;52.598;10.928;2022-09-06T13:19:32;22.10;99.90
5881;DHT22;2966;52.598;10.928;2022-09-06T13:22:00;22.40;99.90
5881;DHT22;2966;52.598;10.928;2022-09-06T13:24:45;22.90;99.90
5881;DHT22;2966;52.598;10.928;2022-09-06T13:27:24;23.30;99.90
5881;DHT22;2966;52.598;10.928;2022-09-06T13:30:00;23.60;99.90
5881;DHT22;2966;52.598;10.928;2022-09-06T13:32:27;23.70;99.90
5881;DHT22;2966;52.598;10.928;2022-09-06T13:34:55;23.60;99.90
5881;DHT22;2966;52.598;10.928;2022-09-06T13:37:26;23.70;99.90
5881;DHT22;2966;52.598;10.928;2022-09-06T13:39:53;23.50;99.90
5881;DHT22;2966;52.598;10.928;2022-09-06T13:42:26;23.50;99.90
5881;DHT22;2966;52.598;10.928;2022-09-06T13:44:53;23.30;99.90
5881;DHT22;2966;52.598;10.928;2022-09-06T13:47:25;23.20;99.90
5881;DHT22;2966;52.598;10.928;2022-09-06T13:49:52;23.60;99.90
5881;DHT22;2966;52.598;10.928;2022-09-06T13:52:20;23.90;99.90
5881;DHT22;2966;52.598;10.928;2022-09-06T13:54:46;23.90;99.90
5881;DHT22;2966;52.598;10.928;2022-09-06T13:57:13;23.90;99.90
5881;DHT22;2966;52.598;10.928;2022-09-06T13:59:41;23.80;99.90
5881;DHT22;2966;52.598;10.928;2022-09-06T14:02:10;23.90;99.90
5881;DHT22;2966;52.598;10.928;2022-09-06T14:04:40;23.80;99.90
5881;DHT22;2966;52.598;10.928;2022-09-06T14:07:09;23.80;99.90
5881;DHT22;2966;52.598;10.928;2022-09-06T14:09:36;23.70;99.90
5881;DHT22;2966;52.598;10.928;2022-09-06T14:12:03;23.90;99.90
5881;DHT22;2966;52.598;10.928;2022-09-06T14:14:31;23.90;99.90
5881;DHT22;2966;52.598;10.928;2022-09-06T14:16:58;23.80;99.90
5881;DHT22;2966;52.598;10.928;2022-09-06T14:19:24;23.80;99.90
5881;DHT22;2966;52.598;10.928;2022-09-06T14:21:55;23.60;99.90
5881;DHT22;2966;52.598;10.928;2022-09-06T14:24:21;23.80;99.90
5881;DHT22;2966;52.598;10.928;2022-09-06T14:26:48;23.80;99.90
5881;DHT22;2966;52.598;10.928;2022-09-06T14:29:17;23.90;99.90
5881;DHT22;2966;52.598;10.928;2022-09-06T14:31:44;23.80;99.90
5881;DHT22;2966;52.598;10.928;2022-09-06T14:34:12;23.80;99.90
5881;DHT22;2966;52.598;10.928;2022-09-06T14:36:39;23.90;99.90
5881;DHT22;2966;52.598;10.928;2022-09-06T14:39:07;24.10;99.90
5881;DHT22;2966;52.598;10.928;2022-09-06T14:41:34;24.10;99.90
5881;DHT22;2966;52.598;10.928;2022-09-06T14:44:01;24.30;99.90
5881;DHT22;2966;52.598;10.928;2022-09-06T14:46:28;24.40;99.90
5881;DHT22;2966;52.598;10.928;2022-09-06T14:48:55;24.30;99.90
5881;DHT22;2966;52.598;10.928;2022-09-06T14:51:23;24.10;99.90
5881;DHT22;2966;52.598;10.928;2022-09-06T14:53:51;23.80;99.90
5881;DHT22;2966;52.598;10.928;2022-09-06T14:56:20;23.70;99.90
5881;DHT22;2966;52.598;10.928;2022-09-06T14:58:47;23.60;99.90
5881;DHT22;2966;52.598;10.928;2022-09-06T15:01:15;23.50;99.90
5881;DHT22;2966;52.598;10.928;2022-09-06T15:03:44;23.30;99.90
5881;DHT22;2966;52.598;10.928;2022-09-06T15:06:13;23.20;99.90
5881;DHT22;2966;52.598;10.928;2022-09-06T15:08:40;23.00;99.90
5881;DHT22;2966;52.598;10.928;2022-09-06T15:11:08;22.90;99.90
5881;DHT22;2966;52.598;10.928;2022-09-06T15:13:38;22.90;99.90
5881;DHT22;2966;52.598;10.928;2022-09-06T15:16:07;22.90;99.90
5881;DHT22;2966;52.598;10.928;2022-09-06T15:18:34;22.90;99.90
5881;DHT22;2966;52.598;10.928;2022-09-06T15:21:08;22.90;99.90
5881;DHT22;2966;52.598;10.928;2022-09-06T15:23:34;23.10;99.90
5881;DHT22;2966;52.598;10.928;2022-09-06T15:26:01;23.20;99.90
5881;DHT22;2966;52.598;10.928;2022-09-06T15:28:28;23.40;99.90
5881;DHT22;2966;52.598;10.928;2022-09-06T15:30:56;23.60;99.90
5881;DHT22;2966;52.598;10.928;2022-09-06T15:33:22;23.60;99.90
5881;DHT22;2966;52.598;10.928;2022-09-06T15:35:52;23.60;99.90
5881;DHT22;2966;52.598;10.928;2022-09-06T15:38:19;23.40;99.90
5881;DHT22;2966;52.598;10.928;2022-09-06T15:40:46;23.00;99.90
5881;DHT22;2966;52.598;10.928;2022-09-06T15:43:13;22.80;99.90
5881;DHT22;2966;52.598;10.928;2022-09-06T15:45:45;22.60;99.90
5881;DHT22;2966;52.598;10.928;2022-09-06T15:48:15;22.50;99.90
5881;DHT22;2966;52.598;10.928;2022-09-06T15:50:43;22.40;99.90
5881;DHT22;2966;52.598;10.928;2022-09-06T15:53:10;22.30;99.90
5881;DHT22;2966;52.598;10.928;2022-09-06T15:55:37;22.20;99.90
5881;DHT22;2966;52.598;10.928;2022-09-06T15:58:22;22.20;99.90
5881;DHT22;2966;52.598;10.928;2022-09-06T16:01:03;22.20;99.90
5881;DHT22;2966;52.598;10.928;2022-09-06T16:03:34;22.30;99.90
5881;DHT22;2966;52.598;10.928;2022-09-06T16:06:02;22.30;99.90
5881;DHT22;2966;52.598;10.928;2022-09-06T16:08:29;22.40;99.90
5881;DHT22;2966;52.598;10.928;2022-09-06T16:10:56;22.30;99.90
5881;DHT22;2966;52.598;10.928;2022-09-06T16:13:23;22.40;99.90
5881;DHT22;2966;52.598;10.928;2022-09-06T16:15:56;22.20;99.90